createdAt,value
2022-12-27T00:01:26.699Z,13.13
2022-12-27T00:03:54.781Z,19.33
2022-12-27T00:06:25.078Z,15.33
2022-12-27T00:08:53.331Z,11.10
2022-12-27T00:11:23.128Z,8.20
2022-12-27T00:13:50.742Z,12.90
2022-12-27T00:16:20.800Z,11.10
2022-12-27T00:18:49.066Z,11.83
2022-12-27T00:21:18.085Z,9.27
2022-12-27T00:23:49.145Z,11.20
2022-12-27T00:26:17.799Z,14.93
2022-12-27T00:28:45.812Z,7.40
2022-12-27T00:31:14.048Z,14.30
2022-12-27T00:33:43.596Z,12.50
2022-12-27T00:36:14.861Z,10.03
2022-12-27T00:38:42.971Z,10.37
2022-12-27T00:41:12.033Z,15.17
2022-12-27T00:43:39.856Z,10.30
2022-12-27T00:46:08.115Z,15.90
2022-12-27T00:48:35.753Z,8.17
2022-12-27T00:51:06.740Z,17.93
2022-12-27T00:53:35.280Z,6.47
2022-12-27T00:56:07.356Z,9.43
2022-12-27T00:58:40.636Z,5.43
2022-12-27T01:01:10.367Z,5.93
2022-12-27T01:03:38.299Z,10.37
2022-12-27T01:06:06.434Z,8.27
2022-12-27T01:08:34.044Z,4.97
2022-12-27T01:11:01.951Z,11.27
2022-12-27T01:13:29.550Z,7.00
2022-12-27T01:15:58.594Z,7.57
2022-12-27T01:18:26.501Z,4.97
2022-12-27T01:20:54.070Z,9.57
2022-12-27T01:23:21.576Z,7.60
2022-12-27T01:25:49.053Z,5.90
2022-12-27T01:28:16.561Z,5.27
2022-12-27T01:30:44.094Z,10.90
2022-12-27T01:33:12.937Z,8.83
2022-12-27T01:35:40.464Z,9.10
2022-12-27T01:38:08.035Z,9.63
2022-12-27T01:40:36.559Z,7.47
2022-12-27T01:43:03.503Z,9.30
2022-12-27T01:45:33.896Z,10.60
2022-12-27T01:48:04.757Z,5.70
2022-12-27T01:50:35.862Z,9.93
2022-12-27T01:53:10.078Z,11.03
2022-12-27T01:55:41.219Z,10.60
2022-12-27T01:58:12.152Z,6.03
2022-12-27T02:00:41.402Z,3.50
2022-12-27T02:03:08.959Z,4.50
2022-12-27T02:05:41.668Z,6.53
2022-12-27T02:08:18.300Z,6.77
2022-12-27T02:10:46.681Z,14.80
2022-12-27T02:13:15.357Z,6.13
2022-12-27T02:15:42.888Z,5.10
2022-12-27T02:18:10.423Z,12.27
2022-12-27T02:20:55.334Z,13.83
2022-12-27T02:23:57.786Z,14.30
2022-12-27T02:26:33.753Z,6.43
2022-12-27T02:29:16.571Z,8.30
2022-12-27T02:31:50.227Z,10.20
2022-12-27T02:34:21.378Z,9.80
2022-12-27T02:36:50.412Z,13.10
2022-12-27T02:39:18.972Z,8.47
2022-12-27T02:42:05.141Z,10.40
2022-12-27T02:44:51.785Z,7.03
2022-12-27T02:47:40.373Z,5.50
2022-12-27T02:50:26.206Z,7.17
2022-12-27T02:53:07.691Z,7.03
2022-12-27T02:56:06.463Z,8.13
2022-12-27T02:58:38.981Z,9.20
2022-12-27T03:01:34.944Z,6.03
2022-12-27T03:04:14.745Z,9.10
2022-12-27T03:06:55.381Z,7.33
2022-12-27T03:09:57.357Z,16.37
2022-12-27T03:12:48.822Z,7.27
2022-12-27T03:15:46.474Z,8.63
2022-12-27T03:18:19.919Z,9.70
2022-12-27T03:21:07.468Z,7.40
2022-12-27T03:23:53.938Z,11.93
2022-12-27T03:26:23.266Z,7.13
2022-12-27T03:29:09.486Z,13.53
2022-12-27T03:31:58.225Z,7.33
2022-12-27T03:34:38.159Z,11.60
2022-12-27T03:37:26.718Z,6.83
2022-12-27T03:39:59.888Z,12.63
2022-12-27T03:42:46.766Z,10.20
2022-12-27T03:45:15.200Z,9.37
2022-12-27T03:47:45.185Z,9.43
2022-12-27T03:50:17.429Z,13.37
2022-12-27T03:52:48.768Z,12.80
2022-12-27T03:55:17.799Z,16.20
2022-12-27T03:57:45.347Z,11.77
2022-12-27T04:00:13.983Z,9.50
2022-12-27T04:02:41.984Z,14.40
2022-12-27T04:05:10.206Z,7.30
2022-12-27T04:07:39.067Z,13.47
2022-12-27T04:10:24.733Z,15.23
2022-12-27T04:13:09.500Z,14.10
2022-12-27T04:15:54.573Z,13.10
2022-12-27T04:18:39.839Z,11.47
2022-12-27T04:21:25.187Z,13.03
2022-12-27T04:24:11.723Z,8.23
2022-12-27T04:26:56.834Z,12.27
2022-12-27T04:29:42.494Z,8.67
2022-12-27T04:32:27.804Z,9.30
2022-12-27T04:34:55.441Z,11.57
2022-12-27T04:37:22.949Z,12.37
2022-12-27T04:40:05.830Z,10.80
2022-12-27T04:42:51.168Z,13.73
2022-12-27T04:45:37.104Z,12.07
2022-12-27T04:48:23.352Z,11.70
2022-12-27T04:51:11.928Z,15.27
2022-12-27T04:53:57.093Z,16.70
2022-12-27T04:56:25.957Z,12.90
2022-12-27T04:59:10.736Z,10.73
2022-12-27T05:01:56.191Z,10.90
2022-12-27T05:04:23.812Z,14.10
2022-12-27T05:06:51.376Z,11.30
2022-12-27T05:09:36.991Z,18.13
2022-12-27T05:12:23.906Z,13.87
2022-12-27T05:14:51.417Z,14.87
2022-12-27T05:17:18.914Z,19.23
2022-12-27T05:19:46.373Z,16.63
2022-12-27T05:22:31.441Z,17.27
2022-12-27T05:25:16.411Z,18.17
2022-12-27T05:27:45.229Z,16.50
2022-12-27T05:30:13.349Z,17.37
2022-12-27T05:32:40.818Z,13.13
2022-12-27T05:35:09.088Z,12.90
2022-12-27T05:37:36.645Z,30.07
2022-12-27T05:40:04.868Z,17.90
2022-12-27T05:42:32.760Z,15.67
2022-12-27T05:45:01.614Z,20.73
2022-12-27T05:47:31.748Z,21.67
2022-12-27T05:49:59.264Z,18.73
2022-12-27T05:52:26.796Z,19.37
2022-12-27T05:54:54.301Z,17.30
2022-12-27T05:57:21.839Z,18.80
2022-12-27T05:59:49.298Z,13.97
2022-12-27T06:02:18.207Z,14.50
2022-12-27T06:04:45.748Z,17.10
2022-12-27T06:07:14.238Z,18.47
2022-12-27T06:09:42.013Z,15.10
2022-12-27T06:12:09.538Z,15.17
2022-12-27T06:14:37.003Z,21.23
2022-12-27T06:17:04.583Z,22.60
2022-12-27T06:19:33.427Z,19.90
2022-12-27T06:22:00.927Z,20.00
2022-12-27T06:24:28.441Z,19.13
2022-12-27T06:26:55.896Z,14.30
2022-12-27T06:29:23.655Z,20.63
2022-12-27T06:31:51.191Z,18.20
2022-12-27T06:34:18.948Z,18.97
2022-12-27T06:36:50.965Z,16.93
2022-12-27T06:39:18.620Z,23.50
2022-12-27T06:41:46.117Z,18.60
2022-12-27T06:44:15.050Z,22.03
2022-12-27T06:46:43.192Z,21.83
2022-12-27T06:49:11.175Z,13.77
2022-12-27T06:51:38.641Z,19.77
2022-12-27T06:54:07.606Z,18.33
2022-12-27T06:56:35.146Z,18.30
2022-12-27T06:59:02.641Z,17.00
2022-12-27T07:01:30.214Z,15.27
2022-12-27T07:03:59.216Z,17.00
2022-12-27T07:06:28.548Z,15.47
2022-12-27T07:08:56.796Z,21.87
2022-12-27T07:11:26.229Z,16.63
2022-12-27T07:13:55.493Z,19.23
2022-12-27T07:16:24.928Z,20.93
2022-12-27T07:18:52.948Z,12.87
2022-12-27T07:21:22.029Z,13.10
2022-12-27T07:23:50.328Z,11.50
2022-12-27T07:26:19.891Z,16.67
2022-12-27T07:28:49.010Z,17.37
2022-12-27T07:31:18.294Z,13.20
2022-12-27T07:33:46.098Z,11.73
2022-12-27T07:36:15.745Z,12.43
2022-12-27T07:38:43.226Z,13.77
2022-12-27T07:41:11.904Z,14.70
2022-12-27T07:43:39.612Z,17.83
2022-12-27T07:46:10.811Z,16.63
2022-12-27T07:48:39.066Z,13.30
2022-12-27T07:51:07.374Z,17.17
2022-12-27T07:53:35.326Z,16.03
2022-12-27T07:56:06.801Z,11.50
2022-12-27T07:58:37.397Z,11.57
2022-12-27T08:01:05.483Z,13.90
2022-12-27T08:03:34.524Z,19.43
2022-12-27T08:06:02.152Z,24.07
2022-12-27T08:08:33.945Z,13.77
2022-12-27T08:11:05.468Z,12.43
2022-12-27T08:13:33.965Z,15.13
2022-12-27T08:16:01.649Z,14.20
2022-12-27T08:18:30.587Z,16.17
2022-12-27T08:20:59.443Z,14.80
2022-12-27T08:23:29.128Z,18.77
2022-12-27T08:25:57.171Z,13.67
2022-12-27T08:28:25.098Z,13.60
2022-12-27T08:30:52.586Z,17.33
2022-12-27T08:33:20.125Z,14.40
2022-12-27T08:35:55.258Z,14.90
2022-12-27T08:38:24.166Z,15.30
2022-12-27T08:40:52.076Z,13.83
2022-12-27T08:43:19.651Z,11.43
2022-12-27T08:45:47.175Z,18.83
2022-12-27T08:48:15.363Z,14.93
2022-12-27T08:50:42.976Z,12.97
2022-12-27T08:53:11.075Z,20.77
2022-12-27T08:55:39.845Z,20.30
2022-12-27T08:58:15.488Z,14.27
2022-12-27T09:00:43.638Z,15.37
2022-12-27T09:03:11.628Z,11.77
2022-12-27T09:05:41.902Z,15.70
2022-12-27T09:08:10.185Z,11.27
2022-12-27T09:10:37.923Z,14.47
2022-12-27T09:13:06.976Z,12.33
2022-12-27T09:15:34.734Z,16.80
2022-12-27T09:18:03.030Z,15.73
2022-12-27T09:20:30.605Z,17.90
2022-12-27T09:22:59.593Z,16.43
2022-12-27T09:25:27.153Z,18.50
2022-12-27T09:27:55.097Z,19.47
2022-12-27T09:30:26.101Z,19.30
2022-12-27T09:32:53.585Z,18.20
2022-12-27T09:35:21.064Z,19.53
2022-12-27T09:37:48.535Z,18.73
2022-12-27T09:40:17.492Z,16.50
2022-12-27T09:43:00.730Z,20.90
2022-12-27T09:45:36.790Z,20.97
2022-12-27T09:48:05.892Z,20.63
2022-12-27T09:50:36.854Z,21.17
2022-12-27T09:53:07.752Z,13.63
2022-12-27T09:55:39.590Z,18.10
2022-12-27T09:58:16.881Z,12.03
2022-12-27T10:00:46.649Z,17.03
2022-12-27T10:03:14.283Z,18.33
2022-12-27T10:05:44.400Z,13.27
2022-12-27T10:08:22.799Z,14.67
2022-12-27T10:10:55.702Z,12.53
2022-12-27T10:13:42.210Z,16.33
2022-12-27T10:16:21.040Z,16.57
2022-12-27T10:19:04.659Z,18.63
2022-12-27T10:21:35.732Z,15.40
2022-12-27T10:24:13.746Z,13.43
2022-12-27T10:26:41.199Z,18.30
2022-12-27T10:29:16.008Z,15.77
2022-12-27T10:31:44.958Z,13.50
2022-12-27T10:34:15.349Z,15.07
2022-12-27T10:36:44.282Z,19.97
2022-12-27T10:39:17.337Z,11.10
2022-12-27T10:41:51.382Z,12.53
2022-12-27T10:44:18.882Z,12.97
2022-12-27T10:46:52.747Z,15.90
2022-12-27T10:49:26.047Z,13.90
2022-12-27T10:51:54.816Z,15.30
2022-12-27T10:54:25.040Z,13.30
2022-12-27T10:56:52.989Z,13.40
2022-12-27T10:59:22.467Z,11.43
2022-12-27T11:02:13.063Z,18.60
2022-12-27T11:04:56.607Z,20.17
2022-12-27T11:07:24.125Z,19.87
2022-12-27T11:10:06.638Z,14.20
2022-12-27T11:12:36.047Z,14.83
2022-12-27T11:15:06.186Z,16.67
2022-12-27T11:17:39.911Z,15.83
2022-12-27T11:20:20.195Z,19.23
2022-12-27T11:22:49.795Z,19.03
2022-12-27T11:25:17.960Z,16.10
2022-12-27T11:27:46.546Z,12.77
2022-12-27T11:30:23.605Z,16.13
2022-12-27T11:32:52.854Z,17.10
2022-12-27T11:35:22.100Z,17.17
2022-12-27T11:37:50.371Z,17.13
2022-12-27T11:40:34.682Z,16.87
2022-12-27T11:43:08.063Z,16.90
2022-12-27T11:45:39.638Z,20.47
2022-12-27T11:48:16.785Z,13.73
2022-12-27T11:50:53.840Z,14.33
2022-12-27T11:53:58.068Z,17.33
2022-12-27T11:56:27.739Z,13.80
2022-12-27T11:59:34.987Z,13.87
2022-12-27T12:02:31.923Z,14.97
2022-12-27T12:05:48.511Z,15.50
2022-12-27T12:08:32.853Z,16.43
2022-12-27T12:11:07.802Z,14.33
2022-12-27T12:14:06.116Z,10.77
2022-12-27T12:16:58.722Z,14.33
2022-12-27T12:19:37.270Z,11.27
2022-12-27T12:22:17.692Z,16.10
2022-12-27T12:25:06.656Z,15.30
2022-12-27T12:27:43.743Z,13.60
2022-12-27T12:30:42.497Z,18.30
2022-12-27T12:33:32.613Z,15.30
2022-12-27T12:36:17.590Z,14.03
2022-12-27T12:38:57.623Z,15.53
2022-12-27T12:41:50.714Z,19.10
2022-12-27T12:44:41.719Z,19.83
2022-12-27T12:47:18.403Z,14.17
2022-12-27T12:49:55.092Z,17.17
2022-12-27T12:52:41.785Z,15.93
2022-12-27T12:55:23.938Z,18.77
2022-12-27T12:58:00.347Z,17.20
2022-12-27T13:00:40.836Z,14.17
2022-12-27T13:03:39.301Z,12.30
2022-12-27T13:06:18.559Z,14.83
2022-12-27T13:08:49.941Z,9.67
2022-12-27T13:11:29.808Z,16.43
2022-12-27T13:14:19.134Z,13.17
2022-12-27T13:16:54.002Z,17.30
2022-12-27T13:19:36.501Z,8.77
2022-12-27T13:22:10.716Z,14.50
2022-12-27T13:24:47.039Z,10.50
2022-12-27T13:27:21.742Z,17.57
2022-12-27T13:30:06.331Z,8.90
2022-12-27T13:32:43.455Z,9.60
2022-12-27T13:35:31.638Z,11.67
2022-12-27T13:38:09.534Z,9.07
2022-12-27T13:41:06.166Z,9.80
2022-12-27T13:43:57.451Z,17.50
2022-12-27T13:46:42.722Z,10.47
2022-12-27T13:49:23.272Z,12.60
2022-12-27T13:51:51.895Z,11.27
2022-12-27T13:54:48.053Z,12.77
2022-12-27T13:57:28.229Z,8.60
2022-12-27T14:00:10.076Z,14.07
2022-12-27T14:02:57.766Z,13.73
2022-12-27T14:06:00.876Z,10.40
2022-12-27T14:08:38.621Z,15.50
2022-12-27T14:11:16.252Z,17.00
2022-12-27T14:13:44.806Z,14.23
2022-12-27T14:16:26.711Z,13.83
2022-12-27T14:19:03.109Z,11.27
2022-12-27T14:22:03.988Z,10.90
2022-12-27T14:25:15.830Z,17.63
2022-12-27T14:28:08.139Z,12.47
2022-12-27T14:30:52.287Z,12.67
2022-12-27T14:33:40.667Z,19.93
2022-12-27T14:36:37.066Z,10.83
2022-12-27T14:39:27.689Z,9.70
2022-12-27T14:42:14.585Z,11.40
2022-12-27T14:45:32.611Z,7.77
2022-12-27T14:48:41.709Z,8.43
2022-12-27T14:52:04.475Z,8.77
2022-12-27T14:54:59.662Z,7.73
2022-12-27T14:57:34.563Z,5.80
2022-12-27T15:00:12.052Z,8.50
2022-12-27T15:02:54.865Z,7.77
2022-12-27T15:05:38.424Z,7.17
2022-12-27T15:08:25.167Z,8.53
2022-12-27T15:11:21.692Z,13.13
2022-12-27T15:13:59.539Z,6.97
2022-12-27T15:16:35.134Z,8.50
2022-12-27T15:19:18.144Z,10.40
2022-12-27T15:21:55.334Z,11.23
2022-12-27T15:24:29.561Z,12.43
2022-12-27T15:27:02.668Z,7.90
2022-12-27T15:29:39.611Z,6.27
2022-12-27T15:32:17.226Z,10.43
2022-12-27T15:34:55.828Z,8.33
2022-12-27T15:37:51.711Z,8.87
2022-12-27T15:40:42.960Z,10.57
2022-12-27T15:43:23.361Z,7.47
2022-12-27T15:46:36.626Z,9.73
2022-12-27T15:49:16.258Z,14.13
2022-12-27T15:51:48.496Z,9.97
2022-12-27T15:54:56.530Z,12.27
2022-12-27T15:57:43.793Z,11.53
2022-12-27T16:00:31.210Z,9.70
2022-12-27T16:03:02.400Z,11.33
2022-12-27T16:05:57.336Z,10.53
2022-12-27T16:08:27.948Z,16.70
2022-12-27T16:10:56.615Z,13.23
2022-12-27T16:13:39.375Z,14.27
2022-12-27T16:16:51.221Z,8.27
2022-12-27T16:19:26.332Z,7.33
2022-12-27T16:25:32.704Z,8.80
2022-12-27T16:28:07.588Z,8.00
2022-12-27T16:30:43.660Z,9.23
2022-12-27T16:33:41.464Z,11.33
2022-12-27T16:37:53.237Z,10.13
2022-12-27T16:40:35.475Z,12.17
2022-12-27T16:44:03.877Z,14.30
2022-12-27T16:46:58.628Z,12.53
2022-12-27T16:49:59.587Z,11.40
2022-12-27T16:52:45.184Z,11.63
2022-12-27T16:55:40.748Z,11.60
2022-12-27T16:58:36.111Z,10.17
2022-12-27T17:01:06.558Z,13.40
2022-12-27T17:03:55.607Z,13.87
2022-12-27T17:06:55.747Z,12.07
2022-12-27T17:09:42.616Z,14.07
2022-12-27T17:12:22.847Z,12.13
2022-12-27T17:14:55.281Z,10.60
2022-12-27T17:17:24.429Z,10.77
2022-12-27T17:19:57.133Z,10.03
2022-12-27T17:22:32.308Z,6.53
2022-12-27T17:25:04.036Z,9.10
2022-12-27T17:27:42.722Z,7.27
2022-12-27T17:30:18.934Z,8.60
2022-12-27T17:33:11.668Z,12.03
2022-12-27T17:35:58.385Z,8.73
2022-12-27T17:38:35.171Z,12.90
2022-12-27T17:41:15.845Z,10.93
2022-12-27T17:44:10.802Z,5.07
2022-12-27T17:46:57.990Z,10.47
2022-12-27T17:49:28.899Z,7.83
2022-12-27T17:52:19.498Z,9.87
2022-12-27T17:55:05.209Z,5.57
2022-12-27T17:57:51.158Z,5.73
2022-12-27T18:00:31.175Z,7.77
2022-12-27T18:03:04.329Z,6.17
2022-12-27T18:05:34.287Z,8.53
2022-12-27T18:08:04.404Z,6.77
2022-12-27T18:10:34.367Z,5.90
2022-12-27T18:13:05.364Z,6.57
2022-12-27T18:15:36.975Z,5.27
2022-12-27T18:18:08.378Z,6.87
2022-12-27T18:20:38.604Z,7.03
2022-12-27T18:23:17.301Z,5.97
2022-12-27T18:25:54.829Z,5.77
2022-12-27T18:28:30.439Z,5.90
2022-12-27T18:31:09.520Z,6.20
2022-12-27T18:33:40.903Z,5.23
2022-12-27T18:36:11.668Z,5.80
2022-12-27T18:38:42.061Z,7.13
2022-12-27T18:41:12.689Z,5.13
2022-12-27T18:43:44.380Z,6.67
2022-12-27T18:46:18.411Z,5.00
2022-12-27T18:48:46.547Z,5.53
2022-12-27T18:51:14.306Z,5.77
2022-12-27T18:53:42.515Z,8.47
2022-12-27T18:56:26.103Z,7.10
2022-12-27T18:59:02.721Z,4.53
2022-12-27T19:01:38.370Z,4.93
2022-12-27T19:04:23.790Z,6.13
2022-12-27T19:06:58.019Z,6.53
2022-12-27T19:09:30.223Z,5.73
2022-12-27T19:12:03.298Z,6.47
2022-12-27T19:14:37.204Z,5.67
2022-12-27T19:17:17.014Z,6.97
2022-12-27T19:19:47.153Z,6.90
2022-12-27T19:22:34.215Z,5.73
2022-12-27T19:25:04.559Z,6.50
2022-12-27T19:27:32.463Z,7.70
2022-12-27T19:30:00.418Z,5.10
2022-12-27T19:32:33.376Z,9.83
2022-12-27T19:35:04.018Z,7.07
2022-12-27T19:37:33.420Z,8.93
2022-12-27T19:40:01.421Z,5.43
2022-12-27T19:42:31.179Z,6.77
2022-12-27T19:44:59.232Z,6.27
2022-12-27T19:47:27.568Z,6.57
2022-12-27T19:49:56.645Z,4.87
2022-12-27T19:52:26.430Z,4.70
2022-12-27T19:54:59.602Z,4.50
2022-12-27T19:57:27.609Z,7.60
2022-12-27T19:59:56.491Z,7.43
2022-12-27T20:02:24.688Z,5.23
2022-12-27T20:04:52.727Z,7.83
2022-12-27T20:07:24.070Z,5.83
2022-12-27T20:09:51.974Z,5.07
2022-12-27T20:12:20.589Z,6.43
2022-12-27T20:14:48.643Z,6.27
2022-12-27T20:17:16.561Z,6.60
2022-12-27T20:19:44.297Z,4.80
2022-12-27T20:22:23.505Z,8.67
2022-12-27T20:24:52.583Z,4.10
2022-12-27T20:27:23.738Z,5.23
2022-12-27T20:29:52.151Z,8.83
2022-12-27T20:32:20.220Z,8.30
2022-12-27T20:34:48.274Z,5.40
2022-12-27T20:37:19.721Z,11.30
2022-12-27T20:39:53.295Z,5.50
2022-12-27T20:42:21.165Z,6.10
2022-12-27T20:44:49.033Z,7.53
2022-12-27T20:47:16.913Z,7.23
2022-12-27T20:49:44.861Z,5.23
2022-12-27T20:52:12.883Z,6.73
2022-12-27T20:54:41.028Z,4.43
2022-12-27T20:57:10.264Z,3.70
2022-12-27T20:59:37.857Z,4.33
2022-12-27T21:02:06.286Z,5.33
2022-12-27T21:04:34.038Z,5.13
2022-12-27T21:07:01.905Z,6.10
2022-12-27T21:09:29.687Z,4.67
2022-12-27T21:11:57.632Z,4.77
2022-12-27T21:14:27.915Z,6.20
2022-12-27T21:16:55.877Z,4.33
2022-12-27T21:19:23.595Z,5.17
2022-12-27T21:21:51.482Z,5.17
2022-12-27T21:24:19.513Z,4.23
2022-12-27T21:26:51.929Z,6.10
2022-12-27T21:29:24.050Z,4.73
2022-12-27T21:31:53.489Z,5.90
2022-12-27T21:34:22.213Z,5.13
2022-12-27T21:36:52.335Z,5.80
2022-12-27T21:39:20.357Z,6.27
2022-12-27T21:41:48.526Z,5.50
2022-12-27T21:44:18.006Z,10.20
2022-12-27T21:46:48.473Z,7.00
2022-12-27T21:49:17.938Z,9.17
2022-12-27T21:51:45.863Z,5.17
2022-12-27T21:54:13.922Z,9.20
2022-12-27T21:56:41.843Z,7.53
2022-12-27T21:59:11.241Z,6.47
2022-12-27T22:01:50.224Z,3.83
2022-12-27T22:04:21.652Z,7.57
2022-12-27T22:06:49.914Z,6.33
2022-12-27T22:09:18.984Z,10.43
2022-12-27T22:11:47.205Z,3.70
2022-12-27T22:14:16.381Z,4.47
2022-12-27T22:16:44.094Z,5.37
2022-12-27T22:19:13.554Z,7.87
2022-12-27T22:21:42.966Z,7.13
2022-12-27T22:24:13.147Z,7.43
2022-12-27T22:26:41.742Z,7.03
2022-12-27T22:29:09.456Z,6.27
2022-12-27T22:31:38.202Z,4.77
2022-12-27T22:34:06.564Z,5.63
2022-12-27T22:36:35.063Z,4.33
2022-12-27T22:39:04.561Z,4.60
2022-12-27T22:41:33.922Z,7.47
2022-12-27T22:44:03.000Z,5.27
2022-12-27T22:46:58.535Z,5.77
2022-12-27T22:49:19.268Z,9.33
2022-12-27T22:51:47.151Z,5.50
2022-12-27T22:54:16.068Z,5.87
2022-12-27T22:56:44.417Z,5.90
2022-12-27T22:59:13.565Z,4.80
2022-12-27T23:01:41.829Z,6.00
2022-12-27T23:04:11.932Z,6.13
2022-12-27T23:06:40.303Z,7.90
2022-12-27T23:09:08.209Z,4.37
2022-12-27T23:11:40.623Z,4.63
2022-12-27T23:14:12.594Z,8.63
2022-12-27T23:16:41.660Z,3.83
2022-12-27T23:19:09.779Z,6.63
2022-12-27T23:21:37.439Z,5.97
2022-12-27T23:24:05.634Z,4.63
2022-12-27T23:26:33.180Z,5.80
2022-12-27T23:29:02.077Z,4.90
2022-12-27T23:31:29.975Z,6.23
2022-12-27T23:33:57.488Z,6.30
2022-12-27T23:36:25.234Z,8.07
2022-12-27T23:38:52.972Z,7.70
2022-12-27T23:41:21.824Z,5.53
2022-12-27T23:43:53.339Z,4.90
2022-12-27T23:46:26.501Z,7.40
2022-12-27T23:48:54.222Z,6.07
2022-12-27T23:51:22.147Z,4.53
2022-12-27T23:53:49.764Z,4.20
2022-12-27T23:56:19.293Z,5.47
2022-12-27T23:58:47.891Z,5.47
